OOCL Kaohsiung — 9V9830 — position and weather

sailwx.info

Track history (hours):
 
Tides and Currents Weather Stations Pressure Air Temp Water Temp Dewpoint Dewpoint Depression Visibility Wind Speed Wind Dir Waves Ship Positions

OOCL Kaohsiung

Last reported at 2015-Aug-28 04:26 UTC. Time now 2015-Sep-02 12:52 UTC.
Position N 31°17' E 121°49'.

Length 280 m; draft 11.2 m.

Type: Cargo ship. MMSI: 566389000.

Date/timePositionNaut miles runAvg speedWind from/ knotsBaromVisibWave heightAir tempDewpointWater temp
2015-Aug-28 04:26N 31°17' E 121°49'1011.1
2015-Aug-28 03:33N 31°21' E 121°39'4 3.3
2015-Aug-28 02:29N 31°22' E 121°35'0 0.0
2015-Aug-28 01:15N 31°22' E 121°35'0 0.0
2015-Aug-28 00:03N 31°22' E 121°35'0 0.0
2015-Aug-27 23:30N 31°22' E 121°35'0 0.1
2015-Aug-27 22:33N 31°22' E 121°35'0 0.0
2015-Aug-27 20:15N 31°22' E 121°35'0 0.0
2015-Aug-27 15:27N 31°22' E 121°35'0 0.0
2015-Aug-27 13:09N 31°22' E 121°35'0 0.0
2015-Aug-27 12:33N 31°22' E 121°35'0 0.0
2015-Aug-27 11:33N 31°22' E 121°35'0 0.0
2015-Aug-27 10:33N 31°22' E 121°35'0 0.0
2015-Aug-27 09:33N 31°22' E 121°35'0 0.0
2015-Aug-27 08:30N 31°22' E 121°35'0 0.0
2015-Aug-27 07:33N 31°22' E 121°35'0 0.0
2015-Aug-27 06:33N 31°22' E 121°35'0 0.0
2015-Aug-27 05:30N 31°22' E 121°35'0 0.1
2015-Aug-27 04:34N 31°22' E 121°35'0 0.1
2015-Aug-27 03:34N 31°23' E 121°35'3 3.4
2015-Aug-27 02:34N 31°21' E 121°39'1010.3
2015-Aug-27 01:34N 31°17' E 121°50'1010.4
2015-Aug-27 00:34N 31°15' E 122°01'1111.4
2015-Aug-26 23:34N 31°09' E 122°13'8 8.3
2015-Aug-26 22:34N 31°06' E 122°22'9 8.5
2015-Aug-26 21:33N 31°07' E 122°32'1111.0
2015-Aug-26 20:33N 31°06' E 122°45'10 9.7
2015-Aug-26 19:33N 31°05' E 122°56'9 8.7
2015-Aug-26 18:30N 31°05' E 123°07'1 0.7
2015-Aug-26 17:10N 31°05' E 123°06'73 6.8
2015-Aug-26 06:25N 29°53' E 122°47'1415.9
2015-Aug-26 05:32N 29°41' E 122°38'2811.7
2015-Aug-26 03:11N 29°54' E 122°10'17 0.9
2015-Aug-25 08:32N 29°58' E 121°51'1211.8
2015-Aug-25 07:31N 29°56' E 122°05'19 9.3
2015-Aug-25 05:31N 29°44' E 122°22'  
Track history (hours):
 
Tides and Currents Weather Stations Pressure Air Temp Water Temp Dewpoint Dewpoint Depression Visibility Wind Speed Wind Dir Waves Ship Positions

OOCL Kaohsiung

Last reported at 2015-Aug-28 04:26 UTC. Time now 2015-Sep-02 12:52 UTC.
Position N 31°17' E 121°49'.

Length 280 m; draft 11.2 m.

Type: Cargo ship. MMSI: 566389000.

Date/timePositionNaut miles runAvg speedWind from/ knotsBaromVisibWave heightAir tempDewpointWater temp
2015-Aug-28 04:26N 31°17' E 121°49'1011.1
2015-Aug-28 03:33N 31°21' E 121°39'4 3.3
2015-Aug-28 02:29N 31°22' E 121°35'0 0.0
2015-Aug-28 01:15N 31°22' E 121°35'0 0.0
2015-Aug-28 00:03N 31°22' E 121°35'0 0.0
2015-Aug-27 23:30N 31°22' E 121°35'0 0.1
2015-Aug-27 22:33N 31°22' E 121°35'0 0.0
2015-Aug-27 20:15N 31°22' E 121°35'0 0.0
2015-Aug-27 15:27N 31°22' E 121°35'0 0.0
2015-Aug-27 13:09N 31°22' E 121°35'0 0.0
2015-Aug-27 12:33N 31°22' E 121°35'0 0.0
2015-Aug-27 11:33N 31°22' E 121°35'0 0.0
2015-Aug-27 10:33N 31°22' E 121°35'0 0.0
2015-Aug-27 09:33N 31°22' E 121°35'0 0.0
2015-Aug-27 08:30N 31°22' E 121°35'0 0.0
2015-Aug-27 07:33N 31°22' E 121°35'0 0.0
2015-Aug-27 06:33N 31°22' E 121°35'0 0.0
2015-Aug-27 05:30N 31°22' E 121°35'0 0.1
2015-Aug-27 04:34N 31°22' E 121°35'0 0.1
2015-Aug-27 03:34N 31°23' E 121°35'3 3.4
2015-Aug-27 02:34N 31°21' E 121°39'1010.3
2015-Aug-27 01:34N 31°17' E 121°50'1010.4
2015-Aug-27 00:34N 31°15' E 122°01'1111.4
2015-Aug-26 23:34N 31°09' E 122°13'8 8.3
2015-Aug-26 22:34N 31°06' E 122°22'9 8.5
2015-Aug-26 21:33N 31°07' E 122°32'1111.0
2015-Aug-26 20:33N 31°06' E 122°45'10 9.7
2015-Aug-26 19:33N 31°05' E 122°56'9 8.7
2015-Aug-26 18:30N 31°05' E 123°07'1 0.7
2015-Aug-26 17:10N 31°05' E 123°06'73 6.8
2015-Aug-26 06:25N 29°53' E 122°47'1415.9
2015-Aug-26 05:32N 29°41' E 122°38'2811.7
2015-Aug-26 03:11N 29°54' E 122°10'17 0.9
2015-Aug-25 08:32N 29°58' E 121°51'1211.8
2015-Aug-25 07:31N 29°56' E 122°05'19 9.3
2015-Aug-25 05:31N 29°44' E 122°22'  

Dump ship's entire track history